createdAt,value
2023-02-13T00:03:56.921Z,5.31
2023-02-13T00:09:17.433Z,5.27
2023-02-13T00:14:39.792Z,5.23
2023-02-13T00:20:00.394Z,5.20
2023-02-13T00:25:21.630Z,5.19
2023-02-13T00:30:42.351Z,5.17
2023-02-13T00:36:12.933Z,5.22
2023-02-13T00:41:33.831Z,5.32
2023-02-13T00:46:54.651Z,5.39
2023-02-13T00:52:15.187Z,5.42
2023-02-13T00:57:37.937Z,5.45
2023-02-13T01:02:58.544Z,5.46
2023-02-13T01:08:20.768Z,5.51
2023-02-13T01:13:41.568Z,5.36
2023-02-13T01:19:02.065Z,5.27
2023-02-13T01:24:25.389Z,5.16
2023-02-13T01:29:45.988Z,4.94
2023-02-13T01:35:07.803Z,4.87
2023-02-13T01:40:30.065Z,4.87
2023-02-13T01:45:56.327Z,4.72
2023-02-13T01:51:23.468Z,4.75
2023-02-13T01:56:48.675Z,4.82
2023-02-13T02:02:09.874Z,4.88
2023-02-13T02:07:31.653Z,4.77
2023-02-13T02:13:08.470Z,4.56
2023-02-13T02:18:31.238Z,4.56
2023-02-13T02:24:43.869Z,4.54
2023-02-13T02:30:17.656Z,4.67
2023-02-13T02:35:56.426Z,4.73
2023-02-13T02:41:45.556Z,4.72
2023-02-13T02:47:35.809Z,4.81
2023-02-13T02:53:22.041Z,4.86
2023-02-13T02:59:26.303Z,4.76
2023-02-13T03:05:10.765Z,4.76
2023-02-13T03:10:53.367Z,4.65
2023-02-13T03:16:37.918Z,4.68
2023-02-13T03:22:28.653Z,4.65
2023-02-13T03:28:40.818Z,4.50
2023-02-13T03:34:04.841Z,4.53
2023-02-13T03:39:43.477Z,4.38
2023-02-13T03:45:47.789Z,4.29
2023-02-13T03:51:12.382Z,4.14
2023-02-13T03:56:54.312Z,4.21
2023-02-13T04:02:21.533Z,4.26
2023-02-13T04:07:42.169Z,4.32
2023-02-13T04:13:20.873Z,4.34
2023-02-13T04:18:42.853Z,4.37
2023-02-13T04:24:04.600Z,4.40
2023-02-13T04:29:27.384Z,4.46
2023-02-13T04:34:48.157Z,4.39
2023-02-13T04:40:09.677Z,4.37
2023-02-13T04:45:30.441Z,4.40
2023-02-13T04:50:51.217Z,4.52
2023-02-13T04:56:11.939Z,4.44
2023-02-13T05:01:32.768Z,4.35
2023-02-13T05:06:53.282Z,4.38
2023-02-13T05:12:14.050Z,4.35
2023-02-13T05:17:34.769Z,4.30
2023-02-13T05:23:13.852Z,4.33
2023-02-13T05:28:52.987Z,4.42
2023-02-13T05:34:14.008Z,4.43
2023-02-13T05:39:34.903Z,4.48
2023-02-13T05:44:55.499Z,4.36
2023-02-13T05:50:16.478Z,4.48
2023-02-13T05:55:38.752Z,4.46
2023-02-13T06:01:00.572Z,4.31
2023-02-13T06:06:22.796Z,4.41
2023-02-13T06:11:43.553Z,4.38
2023-02-13T06:17:04.332Z,4.38
2023-02-13T06:22:25.104Z,4.39
2023-02-13T06:27:46.717Z,4.39
2023-02-13T06:33:07.762Z,4.45
2023-02-13T06:38:28.736Z,4.55
2023-02-13T06:43:49.376Z,4.63
2023-02-13T06:49:10.331Z,4.65
2023-02-13T06:54:46.246Z,4.60
2023-02-13T07:00:08.749Z,4.63
2023-02-13T07:05:30.218Z,4.56
2023-02-13T07:10:51.130Z,4.67
2023-02-13T07:16:11.790Z,4.62
2023-02-13T07:21:32.334Z,4.58
2023-02-13T07:26:53.017Z,4.69
2023-02-13T07:32:13.665Z,4.67
2023-02-13T07:37:34.573Z,4.67
2023-02-13T07:42:56.023Z,4.80
2023-02-13T07:48:17.079Z,4.94
2023-02-13T07:53:37.791Z,5.02
2023-02-13T07:58:58.725Z,5.01
2023-02-13T08:04:19.303Z,4.86
2023-02-13T08:09:58.496Z,4.72
2023-02-13T08:15:19.499Z,4.67
2023-02-13T08:20:40.372Z,4.75
2023-02-13T08:26:02.090Z,4.90
2023-02-13T08:31:23.470Z,5.04
2023-02-13T08:36:44.280Z,4.95
2023-02-13T08:42:04.989Z,4.68
2023-02-13T08:47:25.718Z,4.66
2023-02-13T08:52:46.637Z,4.72
2023-02-13T08:58:07.153Z,4.60
2023-02-13T09:03:27.895Z,4.52
2023-02-13T09:08:48.486Z,4.58
2023-02-13T09:14:09.320Z,4.77
2023-02-13T09:19:29.925Z,5.19
2023-02-13T09:24:50.740Z,5.37
2023-02-13T09:30:13.122Z,5.27
2023-02-13T09:35:33.921Z,5.13
2023-02-13T09:40:59.868Z,5.05
2023-02-13T09:46:27.038Z,5.05
2023-02-13T09:51:55.786Z,5.06
2023-02-13T09:57:25.877Z,5.13
2023-02-13T10:02:53.479Z,5.28
2023-02-13T10:08:29.658Z,5.44
2023-02-13T10:13:53.517Z,5.61
2023-02-13T10:19:38.378Z,5.64
2023-02-13T10:25:24.157Z,5.70
2023-02-13T10:31:00.889Z,5.90
2023-02-13T10:36:34.070Z,6.00
2023-02-13T10:41:58.680Z,6.10
2023-02-13T10:47:59.304Z,6.14
2023-02-13T10:53:25.902Z,6.19
2023-02-13T10:59:05.367Z,6.15
2023-02-13T11:04:25.888Z,6.14
2023-02-13T11:09:49.636Z,6.22
2023-02-13T11:15:20.967Z,6.20
2023-02-13T11:20:44.713Z,6.27
2023-02-13T11:26:32.940Z,6.40
2023-02-13T11:32:15.752Z,6.53
2023-02-13T11:37:37.630Z,7.63
2023-02-13T11:42:58.421Z,7.40
2023-02-13T11:48:23.345Z,7.16
2023-02-13T11:53:44.139Z,6.98
2023-02-13T11:59:05.527Z,6.93
2023-02-13T12:04:26.182Z,6.81
2023-02-13T12:09:55.464Z,6.69
2023-02-13T12:15:20.933Z,6.70
2023-02-13T12:21:05.847Z,6.65
2023-02-13T12:26:33.589Z,6.70
2023-02-13T12:32:20.150Z,6.62
2023-02-13T12:38:15.625Z,6.64
2023-02-13T12:44:02.508Z,6.64
2023-02-13T12:49:44.852Z,6.67
2023-02-13T12:55:41.840Z,6.69
2023-02-13T13:01:05.675Z,6.76
2023-02-13T13:06:34.963Z,6.81
2023-02-13T13:12:07.866Z,6.92
2023-02-13T13:17:44.107Z,6.94
2023-02-13T13:23:12.320Z,6.93
2023-02-13T13:28:37.286Z,7.05
2023-02-13T13:34:02.347Z,7.03
2023-02-13T13:39:44.398Z,6.98
2023-02-13T13:45:35.656Z,7.08
2023-02-13T13:50:57.270Z,7.07
2023-02-13T13:56:18.268Z,7.07
2023-02-13T14:01:39.002Z,7.03
2023-02-13T14:06:59.449Z,7.01
2023-02-13T14:12:29.471Z,7.02
2023-02-13T14:17:52.451Z,7.05
2023-02-13T14:23:28.588Z,6.99
2023-02-13T14:28:49.448Z,6.93
2023-02-13T14:34:15.039Z,6.93
2023-02-13T14:39:36.621Z,6.86
2023-02-13T14:45:00.637Z,6.77
2023-02-13T14:50:26.667Z,6.80
2023-02-13T14:55:53.976Z,7.23
2023-02-13T15:01:24.261Z,7.03
2023-02-13T15:06:46.798Z,6.94
2023-02-13T15:12:32.431Z,6.79
2023-02-13T15:18:00.758Z,6.67
2023-02-13T15:23:28.421Z,6.66
2023-02-13T15:29:29.299Z,6.64
2023-02-13T15:34:53.730Z,6.58
2023-02-13T15:40:35.647Z,6.55
2023-02-13T15:46:01.498Z,6.63
2023-02-13T15:51:29.778Z,6.62
2023-02-13T15:56:52.072Z,6.52
2023-02-13T16:02:46.196Z,6.48
2023-02-13T16:08:30.686Z,6.49
2023-02-13T16:14:18.461Z,6.50
2023-02-13T16:19:51.358Z,7.01
2023-02-13T16:25:28.705Z,6.85
2023-02-13T16:30:57.501Z,6.61
2023-02-13T16:36:27.308Z,6.46
2023-02-13T16:41:48.437Z,6.35
2023-02-13T16:47:22.276Z,6.32
2023-02-13T16:52:43.188Z,6.41
2023-02-13T16:58:05.482Z,6.34
2023-02-13T17:03:26.398Z,6.31
2023-02-13T17:08:47.036Z,6.19
2023-02-13T17:14:07.944Z,6.10
2023-02-13T17:19:31.222Z,6.06
2023-02-13T17:24:51.898Z,5.86
2023-02-13T17:30:21.788Z,5.70
2023-02-13T17:35:42.613Z,5.54
2023-02-13T17:41:03.294Z,5.43
2023-02-13T17:46:24.191Z,5.32
2023-02-13T17:51:46.016Z,5.54
2023-02-13T17:57:06.598Z,5.74
2023-02-13T18:02:27.965Z,5.61
2023-02-13T18:07:49.040Z,5.48
2023-02-13T18:13:10.105Z,5.37
2023-02-13T18:18:30.839Z,5.31
2023-02-13T18:23:53.379Z,5.30
2023-02-13T18:29:14.357Z,5.18
2023-02-13T18:34:37.003Z,5.17
2023-02-13T18:39:58.668Z,5.38
2023-02-13T18:45:19.600Z,5.71
2023-02-13T18:50:42.266Z,5.45
2023-02-13T18:56:05.870Z,5.64
2023-02-13T19:01:27.001Z,5.30
2023-02-13T19:06:47.789Z,5.02
2023-02-13T19:12:08.611Z,4.83
2023-02-13T19:17:29.587Z,4.62
2023-02-13T19:22:50.255Z,4.47
2023-02-13T19:28:11.351Z,4.38
2023-02-13T19:33:32.218Z,4.37
2023-02-13T19:38:58.354Z,4.28
2023-02-13T19:44:19.551Z,4.22
2023-02-13T19:49:40.271Z,4.23
2023-02-13T19:55:01.840Z,4.26
2023-02-13T20:00:24.591Z,4.27
2023-02-13T20:05:45.665Z,4.19
2023-02-13T20:11:13.085Z,4.09
2023-02-13T20:16:35.595Z,4.02
2023-02-13T20:21:56.540Z,4.03
2023-02-13T20:27:17.371Z,4.02
2023-02-13T20:32:38.506Z,3.95
2023-02-13T20:38:00.261Z,3.82
2023-02-13T20:43:21.091Z,3.75
2023-02-13T20:48:43.763Z,3.78
2023-02-13T20:54:05.173Z,3.82
2023-02-13T20:59:26.001Z,3.69
2023-02-13T21:04:47.329Z,3.65
2023-02-13T21:10:08.764Z,3.72
2023-02-13T21:15:30.222Z,3.68
2023-02-13T21:20:51.437Z,3.62
2023-02-13T21:26:17.276Z,3.54
2023-02-13T21:31:44.210Z,3.43
2023-02-13T21:37:05.541Z,3.34
2023-02-13T21:42:26.171Z,3.27
2023-02-13T21:47:47.335Z,3.19
2023-02-13T21:53:08.627Z,3.27
2023-02-13T21:58:33.280Z,3.05
2023-02-13T22:03:59.842Z,2.85
2023-02-13T22:09:22.485Z,2.78
2023-02-13T22:14:43.396Z,2.74
2023-02-13T22:20:04.550Z,2.65
2023-02-13T22:25:25.368Z,2.83
2023-02-13T22:30:46.188Z,2.76
2023-02-13T22:36:07.245Z,2.62
2023-02-13T22:41:28.390Z,2.35
2023-02-13T22:46:49.174Z,2.29
2023-02-13T22:52:10.827Z,2.25
2023-02-13T22:57:31.655Z,2.34
2023-02-13T23:02:52.363Z,2.42
2023-02-13T23:08:13.632Z,2.50
2023-02-13T23:13:34.399Z,2.49
2023-02-13T23:18:56.697Z,2.46
2023-02-13T23:24:17.400Z,2.52
2023-02-13T23:29:38.735Z,2.49
2023-02-13T23:34:59.703Z,2.54
2023-02-13T23:40:20.588Z,2.65
2023-02-13T23:45:41.536Z,2.72
2023-02-13T23:51:02.709Z,2.68
2023-02-13T23:56:24.921Z,2.69
